Time;durP1;ratioP1;P1;durP2;ratioP2;P2;SDS_P1;SDS_P2;PMS_P1;PMS_P2;Temp;Humidity;BMP_temperature;BMP_pressure;BME280_temperature;BME280_humidity;BME280_pressure;Samples;Min_cycle;Max_cycle;Signal;HPM_P1;HPM_P2
2022/10/23 00:02:06;;;;;;;5.57;2.77;;;;;;;;;;5100114;28;20241;-62
2022/10/23 00:04:34;;;;;;;6.97;3.07;;;;;;;;;;5100185;28;20707;-62
2022/10/23 00:07:01;;;;;;;6.10;2.97;;;;;;;;;;5099685;28;20237;-62
2022/10/23 00:09:29;;;;;;;6.80;3.20;;;;;;;;;;5080350;28;20655;-62
2022/10/23 00:11:58;;;;;;;5.50;3.17;;;;;;;;;;5096202;28;20293;-61
2022/10/23 00:14:26;;;;;;;5.73;3.10;;;;;;;;;;5099892;28;20780;-63
2022/10/23 00:16:53;;;;;;;6.97;3.63;;;;;;;;;;5099473;28;20236;-61
2022/10/23 00:19:21;;;;;;;8.17;3.10;;;;;;;;;;5099927;28;20205;-60
2022/10/23 00:21:48;;;;;;;5.50;3.03;;;;;;;;;;5099367;28;20655;-61
2022/10/23 00:24:16;;;;;;;6.07;2.70;;;;;;;;;;5099479;28;20252;-61
2022/10/23 00:26:44;;;;;;;8.10;3.03;;;;;;;;;;5099594;28;20233;-63
2022/10/23 00:29:13;;;;;;;5.03;2.87;;;;;;;;;;5099325;28;20248;-63
2022/10/23 00:31:40;;;;;;;5.93;2.70;;;;;;;;;;5099403;28;20255;-63
2022/10/23 00:34:08;;;;;;;10.07;3.10;;;;;;;;;;5099589;28;20260;-61
2022/10/23 00:36:36;;;;;;;7.37;2.97;;;;;;;;;;5099251;28;20335;-61
2022/10/23 00:39:04;;;;;;;8.53;3.07;;;;;;;;;;5099099;28;20249;-62
2022/10/23 00:41:32;;;;;;;11.00;2.80;;;;;;;;;;5099448;28;20248;-63
2022/10/23 00:44:02;;;;;;;4.97;3.13;;;;;;;;;;5099410;28;20225;-62
2022/10/23 00:46:31;;;;;;;4.43;2.57;;;;;;;;;;5099041;28;20224;-62
2022/10/23 00:48:59;;;;;;;7.23;2.83;;;;;;;;;;5098851;28;20232;-62
2022/10/23 00:51:29;;;;;;;6.93;3.10;;;;;;;;;;5098965;28;20288;-62
2022/10/23 00:53:57;;;;;;;6.50;2.77;;;;;;;;;;5098806;28;20690;-62
2022/10/23 00:56:46;;;;;;;6.37;3.30;;;;;;;;;;5098913;28;20255;-62
2022/10/23 00:59:13;;;;;;;5.40;3.33;;;;;;;;;;5098865;28;20300;-62
2022/10/23 01:01:43;;;;;;;4.80;2.83;;;;;;;;;;5098953;28;20636;-62
2022/10/23 01:04:11;;;;;;;8.80;2.60;;;;;;;;;;5098871;28;20268;-62
2022/10/23 01:06:42;;;;;;;3.27;2.73;;;;;;;;;;5098946;28;20284;-62
2022/10/23 01:09:13;;;;;;;5.20;2.67;;;;;;;;;;5095879;28;20216;-62
2022/10/23 01:11:43;;;;;;;8.93;2.80;;;;;;;;;;5098943;28;20296;-62
2022/10/23 01:14:14;;;;;;;7.10;2.70;;;;;;;;;;5098762;28;20272;-62
2022/10/23 01:16:46;;;;;;;7.20;2.93;;;;;;;;;;5098766;28;20655;-62
2022/10/23 01:19:19;;;;;;;8.87;3.23;;;;;;;;;;5098814;28;20241;-62
2022/10/23 01:21:54;;;;;;;6.40;2.97;;;;;;;;;;5098491;28;20240;-62
2022/10/23 01:24:37;;;;;;;7.20;2.63;;;;;;;;;;5098211;28;20256;-62
2022/10/23 01:27:17;;;;;;;8.47;2.90;;;;;;;;;;5098512;28;20202;-62
2022/10/23 01:29:47;;;;;;;7.23;3.37;;;;;;;;;;5098532;28;20656;-61
2022/10/23 01:32:16;;;;;;;4.70;2.60;;;;;;;;;;5098221;28;20209;-61
2022/10/23 01:34:46;;;;;;;8.17;3.47;;;;;;;;;;5098415;28;20316;-61
2022/10/23 01:37:16;;;;;;;10.17;3.80;;;;;;;;;;5097891;28;20748;-61
2022/10/23 01:39:45;;;;;;;7.50;2.70;;;;;;;;;;5098255;28;20288;-61
2022/10/23 01:42:16;;;;;;;11.10;3.17;;;;;;;;;;5098394;28;20236;-61
2022/10/23 01:44:47;;;;;;;4.70;2.37;;;;;;;;;;5097916;28;20660;-61
2022/10/23 01:47:17;;;;;;;5.40;3.37;;;;;;;;;;5098166;28;20233;-63
2022/10/23 01:49:46;;;;;;;8.90;3.37;;;;;;;;;;5098029;28;20205;-62
2022/10/23 01:52:14;;;;;;;7.93;3.20;;;;;;;;;;5098023;28;20244;-61
2022/10/23 01:54:43;;;;;;;7.07;2.77;;;;;;;;;;5097655;28;20275;-61
2022/10/23 01:57:12;;;;;;;6.77;3.03;;;;;;;;;;5097841;28;20269;-62
2022/10/23 01:59:43;;;;;;;6.83;3.13;;;;;;;;;;5097731;28;20237;-61
2022/10/23 02:02:13;;;;;;;6.77;2.70;;;;;;;;;;5097734;28;20612;-61
2022/10/23 02:04:51;;;;;;;5.37;3.00;;;;;;;;;;5097784;28;20641;-62
2022/10/23 02:07:18;;;;;;;8.97;3.10;;;;;;;;;;5097493;28;20220;-61
2022/10/23 02:09:46;;;;;;;5.37;2.73;;;;;;;;;;5097689;28;20243;-61
2022/10/23 02:12:17;;;;;;;6.87;2.90;;;;;;;;;;5097880;28;20275;-62
2022/10/23 02:14:50;;;;;;;5.93;2.63;;;;;;;;;;5097805;28;20233;-61
2022/10/23 02:17:25;;;;;;;7.67;3.10;;;;;;;;;;5097524;28;20256;-61
2022/10/23 02:19:58;;;;;;;7.27;2.80;;;;;;;;;;5097780;28;20273;-63
2022/10/23 02:22:27;;;;;;;6.73;2.77;;;;;;;;;;5097237;28;20288;-62
2022/10/23 02:24:57;;;;;;;8.83;3.00;;;;;;;;;;5097303;28;20727;-62
2022/10/23 02:27:27;;;;;;;9.77;3.43;;;;;;;;;;5097732;28;20233;-60
2022/10/23 02:29:57;;;;;;;4.83;2.77;;;;;;;;;;5097642;28;20232;-62
2022/10/23 02:32:27;;;;;;;9.83;3.00;;;;;;;;;;5098135;28;20289;-61
2022/10/23 02:34:55;;;;;;;10.03;3.00;;;;;;;;;;5097433;28;20309;-61
2022/10/23 02:37:24;;;;;;;6.73;2.83;;;;;;;;;;5097079;28;20312;-63
2022/10/23 02:39:52;;;;;;;5.57;2.73;;;;;;;;;;5097381;28;20576;-61
2022/10/23 02:42:27;;;;;;;3.73;2.57;;;;;;;;;;5097700;28;20676;-61
2022/10/23 02:44:59;;;;;;;6.57;2.53;;;;;;;;;;5097081;28;20324;-62
2022/10/23 02:47:35;;;;;;;7.50;2.67;;;;;;;;;;5097499;28;20208;-61
2022/10/23 02:50:06;;;;;;;5.93;2.93;;;;;;;;;;5097510;28;20237;-61
2022/10/23 02:52:41;;;;;;;7.33;2.57;;;;;;;;;;5096788;28;20296;-61
2022/10/23 02:55:14;;;;;;;10.13;3.00;;;;;;;;;;5097040;28;20665;-61
2022/10/23 02:57:44;;;;;;;5.57;2.70;;;;;;;;;;5097105;28;20229;-61
2022/10/23 03:00:13;;;;;;;4.00;2.83;;;;;;;;;;5097560;28;20212;-61
2022/10/23 03:02:45;;;;;;;10.77;2.80;;;;;;;;;;5097179;28;20244;-60
2022/10/23 03:05:16;;;;;;;11.33;2.67;;;;;;;;;;5095891;28;20724;-61
2022/10/23 03:07:44;;;;;;;5.70;3.10;;;;;;;;;;5097170;28;20277;-62
2022/10/23 03:10:12;;;;;;;7.60;2.70;;;;;;;;;;5097862;28;20213;-62
2022/10/23 03:12:39;;;;;;;6.47;2.87;;;;;;;;;;5101098;28;20210;-62
2022/10/23 03:15:08;;;;;;;7.57;2.73;;;;;;;;;;5100984;28;20233;-62
2022/10/23 03:17:36;;;;;;;4.97;2.57;;;;;;;;;;5101124;28;20260;-62
2022/10/23 03:20:05;;;;;;;7.47;2.57;;;;;;;;;;5100839;28;20292;-62
2022/10/23 03:22:33;;;;;;;9.37;2.77;;;;;;;;;;5108761;28;20627;-62
2022/10/23 03:25:01;;;;;;;4.97;2.60;;;;;;;;;;5105213;28;20323;-62
2022/10/23 03:27:28;;;;;;;7.53;3.10;;;;;;;;;;5109674;28;20221;-62
2022/10/23 03:29:56;;;;;;;6.40;2.63;;;;;;;;;;5112213;28;20201;-61
2022/10/23 03:32:24;;;;;;;6.30;2.90;;;;;;;;;;5110672;28;20201;-62
2022/10/23 03:34:52;;;;;;;7.97;2.93;;;;;;;;;;5110479;28;20248;-62
2022/10/23 03:37:21;;;;;;;6.20;2.87;;;;;;;;;;5108810;28;20764;-62
2022/10/23 03:39:48;;;;;;;9.17;2.67;;;;;;;;;;5108315;28;20288;-62
2022/10/23 03:42:16;;;;;;;6.93;2.70;;;;;;;;;;5100402;28;20562;-62
2022/10/23 03:44:44;;;;;;;6.67;3.00;;;;;;;;;;5100419;28;20275;-62
2022/10/23 03:47:11;;;;;;;6.33;2.67;;;;;;;;;;5100318;28;20308;-62
2022/10/23 03:49:39;;;;;;;4.67;2.40;;;;;;;;;;5100307;28;20202;-62
2022/10/23 03:52:07;;;;;;;4.17;2.70;;;;;;;;;;5100220;28;20340;-61
2022/10/23 03:54:36;;;;;;;10.17;2.80;;;;;;;;;;5099846;28;20271;-62
2022/10/23 03:57:04;;;;;;;5.47;2.50;;;;;;;;;;5100218;28;20229;-62
2022/10/23 03:59:32;;;;;;;5.17;2.70;;;;;;;;;;5099197;28;20259;-62
2022/10/23 04:02:00;;;;;;;3.90;2.40;;;;;;;;;;5100523;28;20263;-61
2022/10/23 04:04:28;;;;;;;6.77;2.57;;;;;;;;;;5100888;28;20714;-61
2022/10/23 04:06:55;;;;;;;11.03;2.53;;;;;;;;;;5100969;28;20228;-62
2022/10/23 04:09:23;;;;;;;6.77;2.80;;;;;;;;;;5106464;28;20284;-62
2022/10/23 04:11:55;;;;;;;11.57;4.20;;;;;;;;;;5103339;28;20202;-62
2022/10/23 04:14:23;;;;;;;8.47;2.70;;;;;;;;;;5099300;28;20309;-62
2022/10/23 04:16:51;;;;;;;7.77;2.70;;;;;;;;;;5098556;28;20307;-62
2022/10/23 04:19:18;;;;;;;9.47;2.80;;;;;;;;;;5098897;28;20263;-62
2022/10/23 04:21:46;;;;;;;6.57;2.70;;;;;;;;;;5097394;28;20231;-62
2022/10/23 04:24:14;;;;;;;10.03;2.60;;;;;;;;;;5094792;28;20229;-61
2022/10/23 04:26:41;;;;;;;9.90;2.70;;;;;;;;;;5098849;28;20226;-61
2022/10/23 04:29:10;;;;;;;4.77;2.40;;;;;;;;;;5098893;28;20276;-62
2022/10/23 04:31:38;;;;;;;6.00;2.40;;;;;;;;;;5098449;28;20547;-62
2022/10/23 04:34:06;;;;;;;7.80;2.80;;;;;;;;;;5098540;28;20222;-61
2022/10/23 04:36:34;;;;;;;7.50;2.93;;;;;;;;;;5097621;28;20303;-61
2022/10/23 04:39:02;;;;;;;11.93;3.10;;;;;;;;;;5098114;28;20284;-62
2022/10/23 04:41:33;;;;;;;6.33;2.70;;;;;;;;;;5098202;28;20252;-61
2022/10/23 04:44:01;;;;;;;8.17;2.73;;;;;;;;;;5098643;28;20280;-62
2022/10/23 04:46:30;;;;;;;8.57;2.87;;;;;;;;;;5107303;28;20223;-63
2022/10/23 04:48:58;;;;;;;7.73;2.93;;;;;;;;;;5105989;28;20253;-63
2022/10/23 04:51:26;;;;;;;12.07;3.20;;;;;;;;;;5110016;28;20236;-61
2022/10/23 04:53:53;;;;;;;10.80;3.17;;;;;;;;;;5107786;28;20264;-63
2022/10/23 04:56:21;;;;;;;7.13;3.00;;;;;;;;;;5108828;28;20267;-62
2022/10/23 04:58:50;;;;;;;9.57;3.10;;;;;;;;;;5105130;28;20313;-62
2022/10/23 05:01:21;;;;;;;8.57;3.00;;;;;;;;;;5095945;28;20202;-62
2022/10/23 05:03:52;;;;;;;9.50;3.03;;;;;;;;;;5097970;28;20259;-62
2022/10/23 05:06:20;;;;;;;9.97;2.80;;;;;;;;;;5097786;28;20697;-62
2022/10/23 05:08:48;;;;;;;9.93;3.20;;;;;;;;;;5098026;28;20202;-62
2022/10/23 05:11:16;;;;;;;7.97;2.73;;;;;;;;;;5097495;28;20233;-62
2022/10/23 05:13:45;;;;;;;8.17;3.03;;;;;;;;;;5097681;28;20222;-62
2022/10/23 05:16:20;;;;;;;11.63;3.40;;;;;;;;;;5094316;28;20208;-62
2022/10/23 05:18:52;;;;;;;9.43;2.90;;;;;;;;;;5097659;28;20358;-62
2022/10/23 05:21:22;;;;;;;6.40;3.17;;;;;;;;;;5097315;28;20297;-62
2022/10/23 05:23:53;;;;;;;8.87;3.00;;;;;;;;;;5097526;28;20218;-62
2022/10/23 05:26:21;;;;;;;10.30;3.50;;;;;;;;;;5097360;28;20213;-62
2022/10/23 05:28:49;;;;;;;7.20;3.40;;;;;;;;;;5097434;28;20562;-61
2022/10/23 05:31:18;;;;;;;7.63;2.93;;;;;;;;;;5097605;28;20198;-62
2022/10/23 05:33:45;;;;;;;6.77;3.03;;;;;;;;;;5094458;28;20220;-62
2022/10/23 05:36:15;;;;;;;9.27;3.13;;;;;;;;;;5097131;28;20642;-62
2022/10/23 05:38:46;;;;;;;9.57;3.23;;;;;;;;;;5097380;28;20259;-62
2022/10/23 05:41:14;;;;;;;14.73;3.50;;;;;;;;;;5097098;28;20226;-61
2022/10/23 05:43:42;;;;;;;10.43;3.20;;;;;;;;;;5097541;28;20243;-63
2022/10/23 05:46:10;;;;;;;12.63;3.30;;;;;;;;;;5097450;28;20209;-62
2022/10/23 05:48:39;;;;;;;8.13;3.27;;;;;;;;;;5097573;28;20221;-61
2022/10/23 05:51:08;;;;;;;7.73;3.37;;;;;;;;;;5095480;28;20206;-61
2022/10/23 05:53:37;;;;;;;9.77;3.43;;;;;;;;;;5097689;28;20673;-60
2022/10/23 05:56:09;;;;;;;7.57;3.00;;;;;;;;;;5095274;28;20202;-61
2022/10/23 05:58:37;;;;;;;8.57;3.30;;;;;;;;;;5098715;28;20648;-62
2022/10/23 06:01:05;;;;;;;13.23;3.27;;;;;;;;;;5107955;28;20202;-61
2022/10/23 06:03:33;;;;;;;9.70;3.30;;;;;;;;;;5105778;28;20228;-61
2022/10/23 06:06:01;;;;;;;11.43;3.60;;;;;;;;;;5098049;28;20209;-61
2022/10/23 06:08:29;;;;;;;14.83;3.70;;;;;;;;;;5097550;28;20633;-61
2022/10/23 06:10:58;;;;;;;14.33;4.47;;;;;;;;;;5098175;28;20239;-62
2022/10/23 06:13:25;;;;;;;12.43;3.17;;;;;;;;;;5097783;28;20260;-63
2022/10/23 06:15:53;;;;;;;11.53;3.97;;;;;;;;;;5098221;28;20243;-62
2022/10/23 06:18:21;;;;;;;13.87;3.70;;;;;;;;;;5097891;28;20267;-61
2022/10/23 06:20:48;;;;;;;12.03;3.47;;;;;;;;;;5098137;28;20244;-62
2022/10/23 06:23:16;;;;;;;12.50;3.73;;;;;;;;;;5099989;28;20280;-62
2022/10/23 06:25:50;;;;;;;14.17;4.07;;;;;;;;;;5108174;28;20251;-62
2022/10/23 06:28:19;;;;;;;13.10;3.33;;;;;;;;;;5109629;28;20637;-62
2022/10/23 06:30:47;;;;;;;15.10;3.60;;;;;;;;;;5105866;28;20206;-62
2022/10/23 06:33:14;;;;;;;10.17;3.10;;;;;;;;;;5097800;28;20209;-62
2022/10/23 06:35:42;;;;;;;12.53;3.63;;;;;;;;;;5097882;28;20561;-63
2022/10/23 06:38:10;;;;;;;13.13;4.07;;;;;;;;;;5097163;28;20308;-62
2022/10/23 06:40:38;;;;;;;10.60;3.43;;;;;;;;;;5097811;28;20240;-61
2022/10/23 06:43:07;;;;;;;10.40;3.37;;;;;;;;;;5097769;28;20234;-63
2022/10/23 06:45:36;;;;;;;10.33;3.43;;;;;;;;;;5098845;28;20217;-62
2022/10/23 06:48:04;;;;;;;54.00;26.33;;;;;;;;;;5101986;28;20673;-65
2022/10/23 06:50:32;;;;;;;17.73;7.47;;;;;;;;;;5101797;28;20636;-59
2022/10/23 06:52:59;;;;;;;15.17;5.23;;;;;;;;;;5101541;28;20236;-61
2022/10/23 06:55:27;;;;;;;11.17;4.47;;;;;;;;;;5101464;28;20735;-60
2022/10/23 06:57:55;;;;;;;14.10;4.00;;;;;;;;;;5101746;28;20201;-61
2022/10/23 07:00:22;;;;;;;11.83;4.60;;;;;;;;;;5101771;28;20269;-61
2022/10/23 07:02:52;;;;;;;14.17;4.07;;;;;;;;;;5103520;28;20689;-60
2022/10/23 07:05:20;;;;;;;10.93;4.03;;;;;;;;;;5100755;28;20254;-59
2022/10/23 07:07:48;;;;;;;11.73;3.93;;;;;;;;;;5098054;28;20642;-61
2022/10/23 07:10:16;;;;;;;16.63;4.50;;;;;;;;;;5100742;28;20234;-60
2022/10/23 07:12:44;;;;;;;15.87;4.43;;;;;;;;;;5103005;28;20324;-60
2022/10/23 07:15:12;;;;;;;16.93;3.97;;;;;;;;;;5101375;28;20226;-60
2022/10/23 07:17:39;;;;;;;15.30;4.73;;;;;;;;;;5100467;28;20200;-59
2022/10/23 07:20:09;;;;;;;18.23;4.93;;;;;;;;;;5100189;28;20229;-59
2022/10/23 07:22:37;;;;;;;14.90;5.47;;;;;;;;;;5099712;28;20290;-60
2022/10/23 07:25:06;;;;;;;15.07;4.60;;;;;;;;;;5097702;28;20297;-60
2022/10/23 07:27:36;;;;;;;13.10;4.77;;;;;;;;;;5100320;28;20237;-59
2022/10/23 07:30:04;;;;;;;11.27;4.47;;;;;;;;;;5100123;28;20623;-60
2022/10/23 07:32:32;;;;;;;12.17;4.00;;;;;;;;;;5100198;28;20225;-60
2022/10/23 07:35:00;;;;;;;17.83;4.53;;;;;;;;;;5099628;28;20255;-62
2022/10/23 07:37:30;;;;;;;12.43;3.73;;;;;;;;;;5099368;28;20202;-62
2022/10/23 07:39:57;;;;;;;10.13;4.27;;;;;;;;;;5099403;28;20239;-62
2022/10/23 07:42:25;;;;;;;15.03;4.33;;;;;;;;;;5099491;28;20233;-60
2022/10/23 07:44:53;;;;;;;12.53;4.63;;;;;;;;;;5099821;28;20646;-62
2022/10/23 07:47:20;;;;;;;18.50;5.30;;;;;;;;;;5103242;28;20231;-62
2022/10/23 07:49:48;;;;;;;14.27;4.97;;;;;;;;;;5111821;28;20282;-62
2022/10/23 07:52:16;;;;;;;19.53;4.63;;;;;;;;;;5109711;28;20216;-62
2022/10/23 07:54:45;;;;;;;12.80;3.70;;;;;;;;;;5106219;28;20336;-61
2022/10/23 07:57:13;;;;;;;11.33;3.97;;;;;;;;;;5107745;28;20302;-61
2022/10/23 07:59:40;;;;;;;17.77;4.50;;;;;;;;;;5108675;28;20258;-63
2022/10/23 08:02:10;;;;;;;20.53;4.60;;;;;;;;;;5100579;28;20695;-63
2022/10/23 08:04:38;;;;;;;16.27;5.17;;;;;;;;;;5108669;28;20217;-62
2022/10/23 08:07:06;;;;;;;23.10;6.27;;;;;;;;;;5111206;28;20199;-61
2022/10/23 08:09:35;;;;;;;18.80;4.67;;;;;;;;;;5109534;28;20626;-62
2022/10/23 08:12:04;;;;;;;17.07;5.00;;;;;;;;;;5107688;28;20230;-61
2022/10/23 08:14:32;;;;;;;13.33;4.17;;;;;;;;;;5108795;28;20783;-63
2022/10/23 08:17:00;;;;;;;12.63;4.27;;;;;;;;;;5104207;28;20668;-62
2022/10/23 08:19:28;;;;;;;11.87;4.00;;;;;;;;;;5100040;28;20631;-62
2022/10/23 08:21:56;;;;;;;13.67;4.20;;;;;;;;;;5099631;28;20302;-63
2022/10/23 08:24:24;;;;;;;17.13;4.93;;;;;;;;;;5099729;28;20258;-63
2022/10/23 08:26:51;;;;;;;15.83;4.37;;;;;;;;;;5099822;28;20239;-62
2022/10/23 08:29:20;;;;;;;13.50;4.23;;;;;;;;;;5100196;28;20295;-61
2022/10/23 08:31:48;;;;;;;19.43;5.03;;;;;;;;;;5099892;28;20215;-62
2022/10/23 08:34:17;;;;;;;15.27;4.20;;;;;;;;;;5099554;28;20262;-62
2022/10/23 08:36:45;;;;;;;16.50;4.23;;;;;;;;;;5099707;28;20682;-63
2022/10/23 08:39:13;;;;;;;19.37;4.30;;;;;;;;;;5099227;28;20309;-63
2022/10/23 08:41:41;;;;;;;16.23;4.27;;;;;;;;;;5099786;28;20236;-63
2022/10/23 08:44:13;;;;;;;13.27;4.07;;;;;;;;;;5100031;28;20311;-63
2022/10/23 08:46:44;;;;;;;16.47;3.90;;;;;;;;;;5100200;28;20266;-63
2022/10/23 08:49:22;;;;;;;14.23;4.43;;;;;;;;;;5100240;28;20638;-62
2022/10/23 08:51:50;;;;;;;19.17;5.23;;;;;;;;;;5099394;28;20555;-63
2022/10/23 08:54:20;;;;;;;15.20;4.43;;;;;;;;;;5099384;28;20282;-63
2022/10/23 08:56:49;;;;;;;19.57;4.30;;;;;;;;;;5099798;28;20246;-61
2022/10/23 08:59:21;;;;;;;19.17;4.60;;;;;;;;;;5099906;28;20253;-61
2022/10/23 09:01:53;;;;;;;22.83;5.13;;;;;;;;;;5099722;28;20202;-62
2022/10/23 09:04:21;;;;;;;17.77;4.30;;;;;;;;;;5099553;28;20229;-63
2022/10/23 09:06:53;;;;;;;11.63;4.00;;;;;;;;;;5098903;28;20207;-61
2022/10/23 09:09:33;;;;;;;12.83;4.17;;;;;;;;;;5094697;28;20236;-62
2022/10/23 09:12:07;;;;;;;15.50;4.27;;;;;;;;;;5095887;28;20268;-63
2022/10/23 09:14:42;;;;;;;16.07;5.13;;;;;;;;;;5080010;28;20269;-63
2022/10/23 09:17:16;;;;;;;20.90;3.90;;;;;;;;;;5097747;28;20210;-63
2022/10/23 09:19:45;;;;;;;23.90;4.97;;;;;;;;;;5097454;28;20222;-62
2022/10/23 09:22:13;;;;;;;25.63;4.43;;;;;;;;;;5098471;28;20204;-62
2022/10/23 09:24:43;;;;;;;11.50;3.60;;;;;;;;;;5098393;28;20217;-62
2022/10/23 09:27:16;;;;;;;18.30;5.30;;;;;;;;;;5098766;28;20194;-62
2022/10/23 09:29:49;;;;;;;12.20;3.93;;;;;;;;;;5098438;28;20208;-63
2022/10/23 09:32:20;;;;;;;14.33;4.50;;;;;;;;;;5088075;28;20219;-63
2022/10/23 09:34:52;;;;;;;15.13;4.20;;;;;;;;;;5098192;28;20598;-62
2022/10/23 09:37:22;;;;;;;16.70;4.57;;;;;;;;;;5098173;28;20257;-62
2022/10/23 09:40:01;;;;;;;14.93;3.70;;;;;;;;;;5098691;28;20615;-61
2022/10/23 09:42:30;;;;;;;22.67;4.00;;;;;;;;;;5098454;28;20272;-64
2022/10/23 09:45:00;;;;;;;18.63;4.93;;;;;;;;;;5099667;28;20245;-63
2022/10/23 09:47:30;;;;;;;23.93;4.40;;;;;;;;;;5098588;28;20208;-62
2022/10/23 09:49:58;;;;;;;14.87;4.00;;;;;;;;;;5098577;28;20205;-62
2022/10/23 09:52:30;;;;;;;11.47;3.90;;;;;;;;;;5097802;28;20575;-62
2022/10/23 09:55:00;;;;;;;23.00;4.40;;;;;;;;;;5098073;28;20667;-62
2022/10/23 09:57:30;;;;;;;17.73;3.70;;;;;;;;;;5098210;28;20675;-62
2022/10/23 10:00:04;;;;;;;10.07;4.13;;;;;;;;;;5097850;28;20668;-63
2022/10/23 10:02:36;;;;;;;14.90;4.73;;;;;;;;;;5089549;28;20280;-63
2022/10/23 10:05:21;;;;;;;16.60;4.53;;;;;;;;;;5098018;28;20716;-62
2022/10/23 10:07:55;;;;;;;16.70;4.37;;;;;;;;;;5097655;28;20299;-62
2022/10/23 10:10:25;;;;;;;8.67;4.03;;;;;;;;;;5097833;28;20204;-67
2022/10/23 10:12:58;;;;;;;12.87;4.40;;;;;;;;;;5097956;28;20216;-63
2022/10/23 10:15:28;;;;;;;14.13;3.93;;;;;;;;;;5097852;28;20240;-62
2022/10/23 10:18:07;;;;;;;12.93;3.83;;;;;;;;;;5097501;28;20212;-62
2022/10/23 10:20:41;;;;;;;11.57;4.33;;;;;;;;;;5097837;28;20275;-63
2022/10/23 10:23:14;;;;;;;17.37;4.80;;;;;;;;;;5097437;28;20236;-62
2022/10/23 10:25:44;;;;;;;27.83;4.97;;;;;;;;;;5097687;28;20291;-61
2022/10/23 10:28:27;;;;;;;13.20;4.50;;;;;;;;;;5097789;28;20269;-63
2022/10/23 10:31:00;;;;;;;13.50;4.50;;;;;;;;;;5106047;28;20195;-62
2022/10/23 10:33:35;;;;;;;14.27;4.13;;;;;;;;;;5103918;28;20270;-62
2022/10/23 10:36:10;;;;;;;11.13;4.57;;;;;;;;;;5102088;28;20249;-62
2022/10/23 10:38:44;;;;;;;12.90;4.00;;;;;;;;;;5097270;28;20241;-64
2022/10/23 10:41:34;;;;;;;16.70;4.53;;;;;;;;;;5097396;28;20234;-62
2022/10/23 10:44:17;;;;;;;15.63;4.73;;;;;;;;;;5096219;28;20252;-64
2022/10/23 10:46:50;;;;;;;14.07;4.27;;;;;;;;;;5106273;28;20705;-63
2022/10/23 10:49:22;;;;;;;15.90;4.47;;;;;;;;;;5098236;28;20225;-63
2022/10/23 10:51:56;;;;;;;17.50;4.57;;;;;;;;;;5095620;28;20652;-64
2022/10/23 10:54:29;;;;;;;18.80;4.47;;;;;;;;;;5095718;28;20317;-63
2022/10/23 10:56:58;;;;;;;16.07;4.33;;;;;;;;;;5094251;28;20228;-63
2022/10/23 10:59:28;;;;;;;11.90;4.60;;;;;;;;;;5099406;28;20228;-63
2022/10/23 11:01:59;;;;;;;23.53;4.90;;;;;;;;;;5105314;28;20309;-63
2022/10/23 11:04:31;;;;;;;17.90;4.83;;;;;;;;;;5109990;28;20307;-63
2022/10/23 11:07:01;;;;;;;19.33;4.63;;;;;;;;;;5100256;28;20253;-64
2022/10/23 11:09:30;;;;;;;13.30;4.87;;;;;;;;;;5097336;28;20209;-63
2022/10/23 11:11:57;;;;;;;11.63;4.17;;;;;;;;;;5097042;28;20603;-63
2022/10/23 11:14:26;;;;;;;24.43;5.00;;;;;;;;;;5097156;28;20258;-63
2022/10/23 11:16:57;;;;;;;17.20;4.30;;;;;;;;;;5096877;28;20281;-62
2022/10/23 11:19:26;;;;;;;18.47;4.60;;;;;;;;;;5097320;28;20236;-62
2022/10/23 11:21:58;;;;;;;10.90;4.33;;;;;;;;;;5096843;28;20230;-62
2022/10/23 11:24:42;;;;;;;13.63;4.90;;;;;;;;;;5096865;28;20644;-62
2022/10/23 11:27:28;;;;;;;19.93;4.70;;;;;;;;;;5086151;28;20237;-62
2022/10/23 11:30:03;;;;;;;15.43;4.27;;;;;;;;;;5097149;28;20293;-62
2022/10/23 11:32:43;;;;;;;15.97;5.07;;;;;;;;;;5099763;28;20288;-61
2022/10/23 11:35:20;;;;;;;20.90;4.67;;;;;;;;;;5100901;28;20262;-61
2022/10/23 11:37:58;;;;;;;16.97;4.57;;;;;;;;;;5099582;28;20636;-61
2022/10/23 11:40:26;;;;;;;10.43;4.23;;;;;;;;;;5098405;28;20289;-62
2022/10/23 11:42:54;;;;;;;19.70;4.90;;;;;;;;;;5099360;28;20610;-63
2022/10/23 11:45:26;;;;;;;15.10;4.87;;;;;;;;;;5110363;28;20735;-62
2022/10/23 11:47:57;;;;;;;14.97;5.07;;;;;;;;;;5106041;28;20230;-63
2022/10/23 11:50:26;;;;;;;17.80;4.33;;;;;;;;;;5097358;28;20286;-63
2022/10/23 11:53:03;;;;;;;12.90;4.33;;;;;;;;;;5099922;28;20283;-63
2022/10/23 11:56:00;;;;;;;17.93;3.90;;;;;;;;;;5100170;28;20235;-63
2022/10/23 11:58:31;;;;;;;14.90;4.03;;;;;;;;;;5100545;28;20210;-63
2022/10/23 12:01:04;;;;;;;12.17;4.13;;;;;;;;;;5108028;28;20214;-63
2022/10/23 12:03:48;;;;;;;18.57;4.17;;;;;;;;;;5108203;28;20250;-63
2022/10/23 12:06:20;;;;;;;20.93;5.03;;;;;;;;;;5101574;28;20291;-64
2022/10/23 12:08:52;;;;;;;18.13;4.67;;;;;;;;;;5100820;28;20651;-64
2022/10/23 12:11:25;;;;;;;21.60;5.93;;;;;;;;;;5109632;28;20229;-63
2022/10/23 12:13:54;;;;;;;10.40;4.00;;;;;;;;;;5108598;28;20658;-62
2022/10/23 12:16:22;;;;;;;16.73;4.67;;;;;;;;;;5102450;28;20711;-63
2022/10/23 12:18:51;;;;;;;16.33;5.23;;;;;;;;;;5100202;28;20218;-62
2022/10/23 12:21:21;;;;;;;16.50;3.87;;;;;;;;;;5099655;28;20230;-63
2022/10/23 12:23:59;;;;;;;15.63;4.80;;;;;;;;;;5100092;28;20270;-62
2022/10/23 12:26:44;;;;;;;16.20;5.17;;;;;;;;;;5100264;28;20571;-62
2022/10/23 12:29:18;;;;;;;12.37;5.30;;;;;;;;;;5102056;28;20570;-62
2022/10/23 12:31:49;;;;;;;17.43;4.87;;;;;;;;;;5099739;28;20315;-63
2022/10/23 12:34:23;;;;;;;13.70;4.50;;;;;;;;;;5099859;28;20262;-63
2022/10/23 12:36:58;;;;;;;18.00;4.77;;;;;;;;;;5099348;28;20641;-62
2022/10/23 12:39:30;;;;;;;9.20;4.47;;;;;;;;;;5099768;28;20290;-63
2022/10/23 12:41:59;;;;;;;11.40;4.33;;;;;;;;;;5099884;28;20699;-62
2022/10/23 12:44:27;;;;;;;9.80;3.83;;;;;;;;;;5098220;28;20276;-63
2022/10/23 12:46:56;;;;;;;18.83;4.80;;;;;;;;;;5097984;28;20697;-63
2022/10/23 12:49:25;;;;;;;16.13;5.23;;;;;;;;;;5098075;28;20206;-63
2022/10/23 12:51:57;;;;;;;10.80;4.90;;;;;;;;;;5097836;28;20234;-63
2022/10/23 12:54:24;;;;;;;12.33;4.13;;;;;;;;;;5105419;28;20278;-63
2022/10/23 12:56:54;;;;;;;16.67;4.43;;;;;;;;;;5103918;28;20225;-63
2022/10/23 12:59:25;;;;;;;15.73;4.10;;;;;;;;;;5104635;28;20678;-63
2022/10/23 13:01:53;;;;;;;14.60;4.73;;;;;;;;;;5096262;28;20251;-63
2022/10/23 13:04:27;;;;;;;17.93;5.40;;;;;;;;;;5108733;28;20228;-63
2022/10/23 13:06:56;;;;;;;14.73;4.50;;;;;;;;;;5108530;28;20689;-62
2022/10/23 13:09:25;;;;;;;15.30;4.80;;;;;;;;;;5109341;28;20241;-62
2022/10/23 13:11:54;;;;;;;22.17;4.97;;;;;;;;;;5106463;28;20207;-61
2022/10/23 13:14:29;;;;;;;15.13;4.80;;;;;;;;;;5110243;28;20240;-63
2022/10/23 13:17:01;;;;;;;15.53;4.73;;;;;;;;;;5106585;28;20203;-64
2022/10/23 13:19:29;;;;;;;15.90;4.70;;;;;;;;;;5107153;28;20336;-62
2022/10/23 13:21:57;;;;;;;17.40;4.70;;;;;;;;;;5098859;28;20703;-63
2022/10/23 13:24:25;;;;;;;16.23;4.90;;;;;;;;;;5098876;28;20726;-63
2022/10/23 13:26:55;;;;;;;15.10;5.13;;;;;;;;;;5102390;28;20232;-63
2022/10/23 13:29:25;;;;;;;10.83;4.83;;;;;;;;;;5108775;28;20202;-63
2022/10/23 13:31:57;;;;;;;19.43;4.63;;;;;;;;;;5105123;28;20204;-63
2022/10/23 13:34:26;;;;;;;15.33;4.43;;;;;;;;;;5107577;28;20262;-62
2022/10/23 13:36:56;;;;;;;12.50;4.07;;;;;;;;;;5105020;28;20289;-63
2022/10/23 13:39:24;;;;;;;14.53;5.40;;;;;;;;;;5104789;28;20261;-63
2022/10/23 13:41:52;;;;;;;16.60;4.53;;;;;;;;;;5110319;28;20244;-63
2022/10/23 13:44:22;;;;;;;16.33;4.10;;;;;;;;;;5109551;28;20625;-63
2022/10/23 13:46:50;;;;;;;19.27;5.03;;;;;;;;;;5098440;28;20206;-63
2022/10/23 13:49:19;;;;;;;19.10;5.33;;;;;;;;;;5098193;28;20265;-63
2022/10/23 13:51:48;;;;;;;13.67;4.70;;;;;;;;;;5098210;28;20214;-63
2022/10/23 13:54:17;;;;;;;16.67;4.73;;;;;;;;;;5097640;28;20317;-63
2022/10/23 13:56:45;;;;;;;12.27;4.63;;;;;;;;;;5098136;28;20210;-63
2022/10/23 13:59:13;;;;;;;15.77;4.20;;;;;;;;;;5098450;28;20630;-63
2022/10/23 14:01:43;;;;;;;15.50;4.63;;;;;;;;;;5098115;28;20636;-63
2022/10/23 14:04:11;;;;;;;18.23;5.90;;;;;;;;;;5085116;28;20294;-63
2022/10/23 14:06:39;;;;;;;24.50;5.20;;;;;;;;;;5097705;28;20644;-62
2022/10/23 14:09:10;;;;;;;11.17;4.50;;;;;;;;;;5097917;28;20267;-61
2022/10/23 14:11:38;;;;;;;15.53;4.57;;;;;;;;;;5092973;28;20613;-61
2022/10/23 14:14:06;;;;;;;18.73;5.17;;;;;;;;;;5097922;28;20297;-61
2022/10/23 14:16:34;;;;;;;14.10;5.03;;;;;;;;;;5097662;28;20238;-61
2022/10/23 14:19:03;;;;;;;12.00;4.33;;;;;;;;;;5098023;28;20290;-61
2022/10/23 14:21:32;;;;;;;15.77;4.93;;;;;;;;;;5103005;28;20231;-61
2022/10/23 14:24:00;;;;;;;12.10;4.23;;;;;;;;;;5103562;28;20233;-61
2022/10/23 14:26:29;;;;;;;14.70;4.90;;;;;;;;;;5102099;28;20215;-61
2022/10/23 14:28:57;;;;;;;16.37;5.37;;;;;;;;;;5097477;28;20212;-62
2022/10/23 14:31:33;;;;;;;17.13;4.97;;;;;;;;;;5097681;28;20626;-62
2022/10/23 14:34:02;;;;;;;51.47;7.33;;;;;;;;;;5097348;28;20267;-62
2022/10/23 14:36:32;;;;;;;20.37;5.13;;;;;;;;;;5097624;28;20214;-62
2022/10/23 14:39:16;;;;;;;14.13;4.37;;;;;;;;;;5097716;28;20198;-62
2022/10/23 14:41:44;;;;;;;9.03;5.20;;;;;;;;;;5103434;28;20205;-62
2022/10/23 14:44:11;;;;;;;14.70;5.30;;;;;;;;;;5106356;28;20231;-62
2022/10/23 14:46:39;;;;;;;16.60;4.77;;;;;;;;;;5111620;28;20230;-62
2022/10/23 14:49:08;;;;;;;14.07;5.23;;;;;;;;;;5103751;28;20228;-63
2022/10/23 14:51:36;;;;;;;10.30;4.37;;;;;;;;;;5097399;28;20238;-63